sensor_id;sensor_type;location;lat;lon;timestamp;P1;durP1;ratioP1;P2;durP2;ratioP2
66145;SDS011;52948;60.040;30.320;2022-07-19T00:03:37;1.10;;;1.00;;
66145;SDS011;52948;60.040;30.320;2022-07-19T00:08:39;1.70;;;1.27;;
66145;SDS011;52948;60.040;30.320;2022-07-19T00:13:42;1.98;;;1.10;;
66145;SDS011;52948;60.040;30.320;2022-07-19T00:18:44;1.30;;;1.20;;
66145;SDS011;52948;60.040;30.320;2022-07-19T00:23:46;4.13;;;1.10;;
66145;SDS011;52948;60.040;30.320;2022-07-19T00:28:49;1.10;;;1.00;;
66145;SDS011;52948;60.040;30.320;2022-07-19T00:33:51;1.70;;;1.10;;
66145;SDS011;52948;60.040;30.320;2022-07-19T00:38:53;2.00;;;1.00;;
66145;SDS011;52948;60.040;30.320;2022-07-19T00:43:56;1.00;;;0.90;;
66145;SDS011;52948;60.040;30.320;2022-07-19T00:48:59;2.75;;;1.70;;
66145;SDS011;52948;60.040;30.320;2022-07-19T00:54:02;2.22;;;1.00;;
66145;SDS011;52948;60.040;30.320;2022-07-19T00:59:05;0.88;;;0.85;;
66145;SDS011;52948;60.040;30.320;2022-07-19T01:04:08;0.93;;;0.82;;
66145;SDS011;52948;60.040;30.320;2022-07-19T01:09:10;0.88;;;0.68;;
66145;SDS011;52948;60.040;30.320;2022-07-19T01:14:12;0.80;;;0.80;;
66145;SDS011;52948;60.040;30.320;2022-07-19T01:19:15;1.13;;;1.02;;
66145;SDS011;52948;60.040;30.320;2022-07-19T01:24:17;1.02;;;0.95;;
66145;SDS011;52948;60.040;30.320;2022-07-19T01:29:20;0.60;;;0.60;;
66145;SDS011;52948;60.040;30.320;2022-07-19T01:34:22;0.98;;;0.80;;
66145;SDS011;52948;60.040;30.320;2022-07-19T01:39:24;0.80;;;0.80;;
66145;SDS011;52948;60.040;30.320;2022-07-19T01:44:27;1.27;;;1.05;;
66145;SDS011;52948;60.040;30.320;2022-07-19T01:49:29;1.60;;;0.93;;
66145;SDS011;52948;60.040;30.320;2022-07-19T01:54:31;1.02;;;0.93;;
66145;SDS011;52948;60.040;30.320;2022-07-19T01:59:36;1.58;;;1.10;;
66145;SDS011;52948;60.040;30.320;2022-07-19T02:04:39;1.15;;;1.00;;
66145;SDS011;52948;60.040;30.320;2022-07-19T02:09:41;1.33;;;1.10;;
66145;SDS011;52948;60.040;30.320;2022-07-19T02:14:44;1.10;;;0.90;;
66145;SDS011;52948;60.040;30.320;2022-07-19T02:19:47;1.58;;;1.02;;
66145;SDS011;52948;60.040;30.320;2022-07-19T02:24:49;1.95;;;1.02;;
66145;SDS011;52948;60.040;30.320;2022-07-19T02:29:51;1.02;;;0.98;;
66145;SDS011;52948;60.040;30.320;2022-07-19T02:34:54;1.42;;;1.08;;
66145;SDS011;52948;60.040;30.320;2022-07-19T02:39:56;1.63;;;1.13;;
66145;SDS011;52948;60.040;30.320;2022-07-19T02:44:58;1.77;;;0.90;;
66145;SDS011;52948;60.040;30.320;2022-07-19T02:50:01;1.40;;;0.98;;
66145;SDS011;52948;60.040;30.320;2022-07-19T02:55:04;1.20;;;1.10;;
66145;SDS011;52948;60.040;30.320;2022-07-19T03:00:08;1.10;;;0.98;;
66145;SDS011;52948;60.040;30.320;2022-07-19T03:05:14;0.90;;;0.85;;
66145;SDS011;52948;60.040;30.320;2022-07-19T03:10:16;1.95;;;0.98;;
66145;SDS011;52948;60.040;30.320;2022-07-19T03:15:19;1.10;;;1.00;;
66145;SDS011;52948;60.040;30.320;2022-07-19T03:20:21;1.13;;;1.02;;
66145;SDS011;52948;60.040;30.320;2022-07-19T03:25:24;2.08;;;1.52;;
66145;SDS011;52948;60.040;30.320;2022-07-19T03:30:29;2.53;;;1.27;;
66145;SDS011;52948;60.040;30.320;2022-07-19T03:35:31;1.42;;;1.20;;
66145;SDS011;52948;60.040;30.320;2022-07-19T03:40:33;1.10;;;1.00;;
66145;SDS011;52948;60.040;30.320;2022-07-19T03:45:35;1.25;;;1.05;;
66145;SDS011;52948;60.040;30.320;2022-07-19T03:50:38;2.33;;;1.20;;
66145;SDS011;52948;60.040;30.320;2022-07-19T03:55:40;1.75;;;1.17;;
66145;SDS011;52948;60.040;30.320;2022-07-19T04:00:42;1.20;;;0.98;;
66145;SDS011;52948;60.040;30.320;2022-07-19T04:05:47;0.90;;;0.90;;
66145;SDS011;52948;60.040;30.320;2022-07-19T04:10:49;1.35;;;1.05;;
66145;SDS011;52948;60.040;30.320;2022-07-19T04:15:52;1.08;;;1.00;;
66145;SDS011;52948;60.040;30.320;2022-07-19T04:20:54;4.43;;;1.00;;
66145;SDS011;52948;60.040;30.320;2022-07-19T04:25:56;1.20;;;1.10;;
66145;SDS011;52948;60.040;30.320;2022-07-19T04:30:59;1.55;;;1.08;;
66145;SDS011;52948;60.040;30.320;2022-07-19T04:36:01;1.15;;;1.00;;
66145;SDS011;52948;60.040;30.320;2022-07-19T04:41:03;1.15;;;1.05;;
66145;SDS011;52948;60.040;30.320;2022-07-19T04:46:09;0.77;;;0.77;;
66145;SDS011;52948;60.040;30.320;2022-07-19T04:51:15;0.40;;;0.40;;
66145;SDS011;52948;60.040;30.320;2022-07-19T04:56:18;1.00;;;0.70;;
66145;SDS011;52948;60.040;30.320;2022-07-19T05:01:21;1.38;;;0.60;;
66145;SDS011;52948;60.040;30.320;2022-07-19T05:06:25;0.70;;;0.50;;
66145;SDS011;52948;60.040;30.320;2022-07-19T05:11:27;2.28;;;0.73;;
66145;SDS011;52948;60.040;30.320;2022-07-19T05:16:29;0.95;;;0.80;;
66145;SDS011;52948;60.040;30.320;2022-07-19T05:21:32;3.38;;;0.77;;
66145;SDS011;52948;60.040;30.320;2022-07-19T05:26:34;1.05;;;0.50;;
66145;SDS011;52948;60.040;30.320;2022-07-19T05:31:37;0.70;;;0.60;;
66145;SDS011;52948;60.040;30.320;2022-07-19T05:36:39;0.90;;;0.63;;
66145;SDS011;52948;60.040;30.320;2022-07-19T05:41:42;0.90;;;0.40;;
66145;SDS011;52948;60.040;30.320;2022-07-19T05:46:49;0.40;;;0.40;;
66145;SDS011;52948;60.040;30.320;2022-07-19T05:51:52;0.73;;;0.60;;
66145;SDS011;52948;60.040;30.320;2022-07-19T05:56:55;0.73;;;0.52;;
66145;SDS011;52948;60.040;30.320;2022-07-19T06:01:58;0.47;;;0.47;;
66145;SDS011;52948;60.040;30.320;2022-07-19T06:07:00;0.57;;;0.57;;
66145;SDS011;52948;60.040;30.320;2022-07-19T06:12:02;0.90;;;0.73;;
66145;SDS011;52948;60.040;30.320;2022-07-19T06:17:05;0.77;;;0.77;;
66145;SDS011;52948;60.040;30.320;2022-07-19T06:22:08;0.47;;;0.47;;
66145;SDS011;52948;60.040;30.320;2022-07-19T06:27:10;2.20;;;0.80;;
66145;SDS011;52948;60.040;30.320;2022-07-19T06:32:14;2.90;;;0.98;;
66145;SDS011;52948;60.040;30.320;2022-07-19T06:37:16;0.98;;;0.85;;
66145;SDS011;52948;60.040;30.320;2022-07-19T06:42:18;1.30;;;0.90;;
66145;SDS011;52948;60.040;30.320;2022-07-19T06:47:21;1.10;;;0.85;;
66145;SDS011;52948;60.040;30.320;2022-07-19T06:52:23;0.82;;;0.82;;
66145;SDS011;52948;60.040;30.320;2022-07-19T06:57:26;0.77;;;0.77;;
66145;SDS011;52948;60.040;30.320;2022-07-19T07:02:28;0.80;;;0.80;;
66145;SDS011;52948;60.040;30.320;2022-07-19T07:07:30;1.27;;;1.15;;
66145;SDS011;52948;60.040;30.320;2022-07-19T07:12:33;0.80;;;0.80;;
66145;SDS011;52948;60.040;30.320;2022-07-19T07:17:36;0.63;;;0.60;;
66145;SDS011;52948;60.040;30.320;2022-07-19T07:22:39;2.63;;;0.90;;
66145;SDS011;52948;60.040;30.320;2022-07-19T07:27:41;1.33;;;0.90;;
66145;SDS011;52948;60.040;30.320;2022-07-19T07:32:43;1.23;;;0.90;;
66145;SDS011;52948;60.040;30.320;2022-07-19T07:37:46;1.80;;;1.25;;
66145;SDS011;52948;60.040;30.320;2022-07-19T07:42:48;1.30;;;0.98;;
66145;SDS011;52948;60.040;30.320;2022-07-19T07:47:50;1.05;;;0.68;;
66145;SDS011;52948;60.040;30.320;2022-07-19T07:52:53;0.88;;;0.70;;
66145;SDS011;52948;60.040;30.320;2022-07-19T07:57:55;1.90;;;0.50;;
66145;SDS011;52948;60.040;30.320;2022-07-19T08:02:57;0.65;;;0.63;;
66145;SDS011;52948;60.040;30.320;2022-07-19T08:08:00;0.50;;;0.50;;
66145;SDS011;52948;60.040;30.320;2022-07-19T08:13:02;0.70;;;0.70;;
66145;SDS011;52948;60.040;30.320;2022-07-19T08:18:04;0.55;;;0.55;;
66145;SDS011;52948;60.040;30.320;2022-07-19T08:23:07;0.85;;;0.68;;
66145;SDS011;52948;60.040;30.320;2022-07-19T08:28:10;1.02;;;0.85;;
66145;SDS011;52948;60.040;30.320;2022-07-19T08:33:12;0.80;;;0.80;;
66145;SDS011;52948;60.040;30.320;2022-07-19T08:38:14;2.15;;;0.70;;
66145;SDS011;52948;60.040;30.320;2022-07-19T08:43:16;0.60;;;0.60;;
66145;SDS011;52948;60.040;30.320;2022-07-19T08:48:20;0.60;;;0.60;;
66145;SDS011;52948;60.040;30.320;2022-07-19T08:53:23;1.10;;;0.80;;
66145;SDS011;52948;60.040;30.320;2022-07-19T08:58:25;1.77;;;0.70;;
66145;SDS011;52948;60.040;30.320;2022-07-19T09:03:27;0.70;;;0.70;;
66145;SDS011;52948;60.040;30.320;2022-07-19T09:08:30;0.50;;;0.50;;
66145;SDS011;52948;60.040;30.320;2022-07-19T09:13:32;1.10;;;0.50;;
66145;SDS011;52948;60.040;30.320;2022-07-19T09:18:35;0.65;;;0.65;;
66145;SDS011;52948;60.040;30.320;2022-07-19T09:23:37;0.80;;;0.80;;
66145;SDS011;52948;60.040;30.320;2022-07-19T09:28:42;0.60;;;0.60;;
66145;SDS011;52948;60.040;30.320;2022-07-19T09:33:45;1.25;;;0.90;;
66145;SDS011;52948;60.040;30.320;2022-07-19T09:38:54;1.38;;;0.77;;
66145;SDS011;52948;60.040;30.320;2022-07-19T09:44:00;0.60;;;0.60;;
66145;SDS011;52948;60.040;30.320;2022-07-19T09:49:11;0.80;;;0.65;;
66145;SDS011;52948;60.040;30.320;2022-07-19T09:54:15;0.70;;;0.70;;
66145;SDS011;52948;60.040;30.320;2022-07-19T09:59:19;0.50;;;0.50;;
66145;SDS011;52948;60.040;30.320;2022-07-19T10:04:23;0.90;;;0.90;;
66145;SDS011;52948;60.040;30.320;2022-07-19T10:09:27;0.50;;;0.50;;
66145;SDS011;52948;60.040;30.320;2022-07-19T10:14:29;0.50;;;0.40;;
66145;SDS011;52948;60.040;30.320;2022-07-19T10:29:52;2.60;;;0.47;;
66145;SDS011;52948;60.040;30.320;2022-07-19T10:51:11;0.30;;;0.30;;
66145;SDS011;52948;60.040;30.320;2022-07-19T10:56:15;0.40;;;0.40;;
66145;SDS011;52948;60.040;30.320;2022-07-19T11:01:19;1.90;;;0.70;;
66145;SDS011;52948;60.040;30.320;2022-07-19T11:06:23;0.50;;;0.35;;
66145;SDS011;52948;60.040;30.320;2022-07-19T11:11:27;0.50;;;0.50;;
66145;SDS011;52948;60.040;30.320;2022-07-19T11:16:31;1.17;;;1.00;;
66145;SDS011;52948;60.040;30.320;2022-07-19T11:21:34;0.47;;;0.43;;
66145;SDS011;52948;60.040;30.320;2022-07-19T11:26:39;1.10;;;0.60;;
66145;SDS011;52948;60.040;30.320;2022-07-19T11:31:45;1.95;;;0.50;;
66145;SDS011;52948;60.040;30.320;2022-07-19T11:42:00;0.55;;;0.50;;
66145;SDS011;52948;60.040;30.320;2022-07-19T11:47:06;0.52;;;0.40;;
66145;SDS011;52948;60.040;30.320;2022-07-19T11:52:09;1.13;;;0.30;;
66145;SDS011;52948;60.040;30.320;2022-07-19T11:57:22;1.52;;;0.60;;
66145;SDS011;52948;60.040;30.320;2022-07-19T12:02:27;0.82;;;0.40;;
66145;SDS011;52948;60.040;30.320;2022-07-19T12:07:29;0.57;;;0.40;;
66145;SDS011;52948;60.040;30.320;2022-07-19T12:12:31;0.60;;;0.47;;
66145;SDS011;52948;60.040;30.320;2022-07-19T12:17:54;0.50;;;0.40;;
66145;SDS011;52948;60.040;30.320;2022-07-19T12:23:10;0.50;;;0.43;;
66145;SDS011;52948;60.040;30.320;2022-07-19T12:28:24;0.80;;;0.50;;
66145;SDS011;52948;60.040;30.320;2022-07-19T12:33:27;0.30;;;0.30;;
66145;SDS011;52948;60.040;30.320;2022-07-19T12:38:31;0.85;;;0.60;;
66145;SDS011;52948;60.040;30.320;2022-07-19T12:43:34;0.50;;;0.50;;
66145;SDS011;52948;60.040;30.320;2022-07-19T12:48:37;1.10;;;0.70;;
66145;SDS011;52948;60.040;30.320;2022-07-19T12:53:39;0.65;;;0.60;;
66145;SDS011;52948;60.040;30.320;2022-07-19T12:58:41;0.50;;;0.50;;
66145;SDS011;52948;60.040;30.320;2022-07-19T13:04:02;0.60;;;0.60;;
66145;SDS011;52948;60.040;30.320;2022-07-19T13:09:05;0.50;;;0.50;;
66145;SDS011;52948;60.040;30.320;2022-07-19T13:14:07;0.60;;;0.60;;
66145;SDS011;52948;60.040;30.320;2022-07-19T13:19:10;1.10;;;0.90;;
66145;SDS011;52948;60.040;30.320;2022-07-19T13:24:13;0.50;;;0.50;;
66145;SDS011;52948;60.040;30.320;2022-07-19T13:29:15;0.93;;;0.77;;
66145;SDS011;52948;60.040;30.320;2022-07-19T13:34:18;0.70;;;0.70;;
66145;SDS011;52948;60.040;30.320;2022-07-19T13:39:21;0.85;;;0.60;;
66145;SDS011;52948;60.040;30.320;2022-07-19T13:44:23;0.70;;;0.68;;
66145;SDS011;52948;60.040;30.320;2022-07-19T13:49:26;1.52;;;0.80;;
66145;SDS011;52948;60.040;30.320;2022-07-19T13:54:29;0.65;;;0.65;;
66145;SDS011;52948;60.040;30.320;2022-07-19T13:59:31;1.00;;;0.88;;
66145;SDS011;52948;60.040;30.320;2022-07-19T14:04:35;0.80;;;0.70;;
66145;SDS011;52948;60.040;30.320;2022-07-19T14:09:38;0.93;;;0.63;;
66145;SDS011;52948;60.040;30.320;2022-07-19T14:14:41;3.13;;;0.98;;
66145;SDS011;52948;60.040;30.320;2022-07-19T14:19:43;2.65;;;0.70;;
66145;SDS011;52948;60.040;30.320;2022-07-19T14:24:45;1.30;;;0.88;;
66145;SDS011;52948;60.040;30.320;2022-07-19T14:29:49;0.85;;;0.80;;
66145;SDS011;52948;60.040;30.320;2022-07-19T14:34:51;0.90;;;0.75;;
66145;SDS011;52948;60.040;30.320;2022-07-19T14:39:54;0.60;;;0.60;;
66145;SDS011;52948;60.040;30.320;2022-07-19T14:44:56;0.85;;;0.60;;
66145;SDS011;52948;60.040;30.320;2022-07-19T14:49:59;1.35;;;0.98;;
66145;SDS011;52948;60.040;30.320;2022-07-19T14:55:02;1.15;;;0.98;;
66145;SDS011;52948;60.040;30.320;2022-07-19T15:00:05;1.85;;;1.00;;
66145;SDS011;52948;60.040;30.320;2022-07-19T15:05:09;2.25;;;1.10;;
66145;SDS011;52948;60.040;30.320;2022-07-19T15:10:11;1.35;;;0.88;;
66145;SDS011;52948;60.040;30.320;2022-07-19T15:15:14;1.10;;;0.85;;
66145;SDS011;52948;60.040;30.320;2022-07-19T15:20:16;1.15;;;0.90;;
66145;SDS011;52948;60.040;30.320;2022-07-19T15:25:18;3.70;;;1.17;;
66145;SDS011;52948;60.040;30.320;2022-07-19T15:30:23;2.45;;;0.98;;
66145;SDS011;52948;60.040;30.320;2022-07-19T15:35:25;3.30;;;1.02;;
66145;SDS011;52948;60.040;30.320;2022-07-19T15:40:27;1.75;;;1.05;;
66145;SDS011;52948;60.040;30.320;2022-07-19T15:45:30;1.85;;;1.25;;
66145;SDS011;52948;60.040;30.320;2022-07-19T15:50:32;2.88;;;1.10;;
66145;SDS011;52948;60.040;30.320;2022-07-19T15:55:38;1.80;;;1.40;;
66145;SDS011;52948;60.040;30.320;2022-07-19T16:00:41;2.28;;;1.20;;
66145;SDS011;52948;60.040;30.320;2022-07-19T16:05:43;2.50;;;1.40;;
66145;SDS011;52948;60.040;30.320;2022-07-19T16:10:46;1.55;;;1.20;;
66145;SDS011;52948;60.040;30.320;2022-07-19T16:15:49;2.65;;;1.10;;
66145;SDS011;52948;60.040;30.320;2022-07-19T16:20:51;1.38;;;1.20;;
66145;SDS011;52948;60.040;30.320;2022-07-19T16:25:54;1.35;;;0.90;;
66145;SDS011;52948;60.040;30.320;2022-07-19T16:30:56;1.83;;;1.20;;
66145;SDS011;52948;60.040;30.320;2022-07-19T16:35:59;3.70;;;1.63;;
66145;SDS011;52948;60.040;30.320;2022-07-19T16:41:01;2.10;;;1.10;;
66145;SDS011;52948;60.040;30.320;2022-07-19T16:46:03;4.97;;;1.60;;
66145;SDS011;52948;60.040;30.320;2022-07-19T16:51:06;2.42;;;1.42;;
66145;SDS011;52948;60.040;30.320;2022-07-19T16:56:08;4.57;;;1.70;;
66145;SDS011;52948;60.040;30.320;2022-07-19T17:01:11;1.55;;;1.25;;
66145;SDS011;52948;60.040;30.320;2022-07-19T17:06:13;2.95;;;1.30;;
66145;SDS011;52948;60.040;30.320;2022-07-19T17:11:15;2.30;;;1.45;;
66145;SDS011;52948;60.040;30.320;2022-07-19T17:16:18;4.75;;;1.90;;
66145;SDS011;52948;60.040;30.320;2022-07-19T17:21:20;3.63;;;1.60;;
66145;SDS011;52948;60.040;30.320;2022-07-19T17:26:22;2.63;;;1.70;;
66145;SDS011;52948;60.040;30.320;2022-07-19T17:31:25;5.68;;;2.40;;
66145;SDS011;52948;60.040;30.320;2022-07-19T17:36:27;2.38;;;1.75;;
66145;SDS011;52948;60.040;30.320;2022-07-19T17:41:30;1.83;;;1.30;;
66145;SDS011;52948;60.040;30.320;2022-07-19T17:46:35;1.65;;;1.10;;
66145;SDS011;52948;60.040;30.320;2022-07-19T17:51:38;1.80;;;1.30;;
66145;SDS011;52948;60.040;30.320;2022-07-19T17:56:40;1.70;;;1.60;;
66145;SDS011;52948;60.040;30.320;2022-07-19T18:01:43;4.18;;;1.60;;
66145;SDS011;52948;60.040;30.320;2022-07-19T18:06:45;3.72;;;1.60;;
66145;SDS011;52948;60.040;30.320;2022-07-19T18:11:47;2.25;;;1.40;;
66145;SDS011;52948;60.040;30.320;2022-07-19T18:16:50;3.05;;;1.67;;
66145;SDS011;52948;60.040;30.320;2022-07-19T18:21:52;2.05;;;1.50;;
66145;SDS011;52948;60.040;30.320;2022-07-19T18:26:54;2.95;;;1.40;;
66145;SDS011;52948;60.040;30.320;2022-07-19T18:31:57;2.40;;;1.42;;
66145;SDS011;52948;60.040;30.320;2022-07-19T18:36:59;2.70;;;1.50;;
66145;SDS011;52948;60.040;30.320;2022-07-19T18:42:02;3.63;;;1.45;;
66145;SDS011;52948;60.040;30.320;2022-07-19T18:47:05;2.25;;;1.02;;
66145;SDS011;52948;60.040;30.320;2022-07-19T18:57:14;1.80;;;1.40;;
66145;SDS011;52948;60.040;30.320;2022-07-19T19:02:16;5.28;;;2.90;;
66145;SDS011;52948;60.040;30.320;2022-07-19T19:07:19;4.75;;;2.35;;
66145;SDS011;52948;60.040;30.320;2022-07-19T19:12:22;3.47;;;2.33;;
66145;SDS011;52948;60.040;30.320;2022-07-19T19:17:24;3.65;;;1.42;;
66145;SDS011;52948;60.040;30.320;2022-07-19T19:22:26;3.05;;;1.55;;
66145;SDS011;52948;60.040;30.320;2022-07-19T19:27:30;1.73;;;1.60;;
66145;SDS011;52948;60.040;30.320;2022-07-19T19:32:33;2.20;;;1.67;;
66145;SDS011;52948;60.040;30.320;2022-07-19T19:37:35;5.75;;;2.75;;
66145;SDS011;52948;60.040;30.320;2022-07-19T19:42:40;7.32;;;1.80;;
66145;SDS011;52948;60.040;30.320;2022-07-19T19:47:43;4.35;;;2.00;;
66145;SDS011;52948;60.040;30.320;2022-07-19T19:52:46;2.10;;;1.50;;
66145;SDS011;52948;60.040;30.320;2022-07-19T19:57:48;2.67;;;1.95;;
66145;SDS011;52948;60.040;30.320;2022-07-19T20:02:50;4.57;;;1.50;;
66145;SDS011;52948;60.040;30.320;2022-07-19T20:07:53;2.75;;;1.92;;
66145;SDS011;52948;60.040;30.320;2022-07-19T20:12:56;2.70;;;1.70;;
66145;SDS011;52948;60.040;30.320;2022-07-19T20:17:58;4.45;;;1.35;;
66145;SDS011;52948;60.040;30.320;2022-07-19T20:23:01;5.80;;;2.92;;
66145;SDS011;52948;60.040;30.320;2022-07-19T20:28:03;3.42;;;1.60;;
66145;SDS011;52948;60.040;30.320;2022-07-19T20:33:06;3.28;;;1.60;;
66145;SDS011;52948;60.040;30.320;2022-07-19T20:38:09;3.15;;;1.80;;
66145;SDS011;52948;60.040;30.320;2022-07-19T20:43:11;2.08;;;1.58;;
66145;SDS011;52948;60.040;30.320;2022-07-19T20:48:14;2.28;;;1.55;;
66145;SDS011;52948;60.040;30.320;2022-07-19T20:53:16;2.30;;;1.75;;
66145;SDS011;52948;60.040;30.320;2022-07-19T20:58:18;2.10;;;1.58;;
66145;SDS011;52948;60.040;30.320;2022-07-19T21:03:21;2.38;;;1.80;;
66145;SDS011;52948;60.040;30.320;2022-07-19T21:08:24;2.95;;;1.70;;
66145;SDS011;52948;60.040;30.320;2022-07-19T21:13:27;5.70;;;1.80;;
66145;SDS011;52948;60.040;30.320;2022-07-19T21:18:30;4.00;;;1.73;;
66145;SDS011;52948;60.040;30.320;2022-07-19T21:23:34;4.28;;;1.70;;
66145;SDS011;52948;60.040;30.320;2022-07-19T21:28:36;2.53;;;1.65;;
66145;SDS011;52948;60.040;30.320;2022-07-19T21:33:39;2.20;;;1.48;;
66145;SDS011;52948;60.040;30.320;2022-07-19T21:39:05;2.25;;;1.40;;
66145;SDS011;52948;60.040;30.320;2022-07-19T21:44:09;1.92;;;1.40;;
66145;SDS011;52948;60.040;30.320;2022-07-19T21:49:11;2.53;;;1.77;;
66145;SDS011;52948;60.040;30.320;2022-07-19T21:54:13;1.98;;;1.67;;
66145;SDS011;52948;60.040;30.320;2022-07-19T21:59:16;3.30;;;1.63;;
66145;SDS011;52948;60.040;30.320;2022-07-19T22:04:18;2.38;;;1.30;;
66145;SDS011;52948;60.040;30.320;2022-07-19T22:09:21;1.80;;;1.38;;
66145;SDS011;52948;60.040;30.320;2022-07-19T22:14:23;1.40;;;1.30;;
66145;SDS011;52948;60.040;30.320;2022-07-19T22:19:26;1.55;;;1.23;;
66145;SDS011;52948;60.040;30.320;2022-07-19T22:24:29;1.88;;;1.25;;
66145;SDS011;52948;60.040;30.320;2022-07-19T22:29:31;3.05;;;1.40;;
66145;SDS011;52948;60.040;30.320;2022-07-19T22:34:34;1.70;;;1.38;;
66145;SDS011;52948;60.040;30.320;2022-07-19T22:39:37;1.85;;;1.35;;
66145;SDS011;52948;60.040;30.320;2022-07-19T22:44:41;2.65;;;1.50;;
66145;SDS011;52948;60.040;30.320;2022-07-19T22:49:47;1.90;;;1.55;;
66145;SDS011;52948;60.040;30.320;2022-07-19T22:54:49;2.45;;;1.50;;
66145;SDS011;52948;60.040;30.320;2022-07-19T22:59:52;2.63;;;1.50;;
66145;SDS011;52948;60.040;30.320;2022-07-19T23:04:54;2.83;;;1.50;;
66145;SDS011;52948;60.040;30.320;2022-07-19T23:09:58;2.40;;;1.23;;
66145;SDS011;52948;60.040;30.320;2022-07-19T23:15:00;1.75;;;1.42;;
66145;SDS011;52948;60.040;30.320;2022-07-19T23:20:04;1.10;;;1.00;;
66145;SDS011;52948;60.040;30.320;2022-07-19T23:25:12;1.40;;;0.90;;
66145;SDS011;52948;60.040;30.320;2022-07-19T23:30:15;1.98;;;1.00;;
66145;SDS011;52948;60.040;30.320;2022-07-19T23:35:17;1.60;;;1.10;;
66145;SDS011;52948;60.040;30.320;2022-07-19T23:40:20;1.67;;;1.08;;
66145;SDS011;52948;60.040;30.320;2022-07-19T23:45:22;2.72;;;0.95;;
66145;SDS011;52948;60.040;30.320;2022-07-19T23:50:29;1.08;;;0.77;;
66145;SDS011;52948;60.040;30.320;2022-07-19T23:55:31;1.85;;;0.93;;
